Coupeville, WA (98239)

2:13 PM PDT on August 31, 2015 (GMT -0700)
Coupeville | | Change Station
CLOSE
Current Station
Personal Weather Station
Location: Coupeville, WA
Elevation: 95 ft
Nearby Weather Stations

Elev 95 ft 48.22 °N, 122.69 °W | Updated 15 seconds ago

Rain
Rain
61.2 °F
Feels Like 61.2 °F
N
6.9
Wind Variable Wind from SSE
Gusts 6.9 mph

Today
High -- | Low -- °F
--% Chance of Precip.
Yesterday
High -- | Low -- °F
Precip. -- in
6:26 AM 7:53 PM
Waning Gibbous, 93% visible
Pressure 29.93 in
Visibility 8.0 miles
Clouds Few 1200 ft
Mostly Cloudy 1900 ft
Overcast 9000 ft
Dew Point 58 °F
Humidity 89%
Rainfall 0.02 in
Snow Depth Not available.
UV 2 out of 12
Pollen .50 out of 12
Air Quality Not available.
Flu Activity Not available.
METAR KNUW 312056Z 15020G26KT 8SM -RA FEW012 BKN019 OVC090 16/14 A2993 RMK AO2 PK WND 15029/2005 RAB17 SLP134 P0001 60002 T01560144 52001
Pressure 29.93 in
Visibility 8.0 miles
Clouds Few 1200 ft
Mostly Cloudy 1900 ft
Overcast 9000 ft
Dew Point 58 °F
Humidity 89%
Rainfall 0.02 in
Snow Depth Not available.
UV 2 out of 12
Pollen .50 out of 12
Air Quality Not available.
Flu Activity Not available.
METAR KNUW 312056Z 15020G26KT 8SM -RA FEW012 BKN019 OVC090 16/14 A2993 RMK AO2 PK WND 15029/2005 RAB17 SLP134 P0001 60002 T01560144 52001

10-Day Weather Forecast

×

Almanac

Astronomy

Aug. 31, 2015 Rise Set
Actual Time
Civil Twilight
Nautical Twilight
Astronomical Twilight
Moon
Length of Visible Light
Length of Day
Tomorrow will be .
, % of the Moon is Illuminated

Today's Extremes

State Highs State Lows

Community

WunderPhotos

Upload Photos

1,851,371 photos uploaded!

WunderBlogs® & News

Nearby

Air Quality

  Air Quality AQ Index Pollutant
Not available.

Snow Depth

Station Depth Elevation

Earthquake Activity

City Distance Mag. Time & Date
Minimum magnitude displayed is 2.5.

Coastal Water Temperatures

Place Temperature

Stations

Nearby Weather Stations

Station Location Temp. Windchill Dew Point Humidity Wind Precip. Elev Updated Type